createdAt,value
2022-10-05T00:00:08.974Z,4.22
2022-10-05T00:01:08.972Z,4.11
2022-10-05T00:02:09.042Z,4.11
2022-10-05T00:03:08.975Z,4.39
2022-10-05T00:04:09.034Z,4.11
2022-10-05T00:05:09.031Z,3.67
2022-10-05T00:06:09.003Z,3.56
2022-10-05T00:07:08.987Z,3.39
2022-10-05T00:08:08.977Z,3.28
2022-10-05T00:09:08.982Z,3.28
2022-10-05T00:10:08.990Z,3
2022-10-05T00:11:08.988Z,3.28
2022-10-05T00:12:08.995Z,3.56
2022-10-05T00:13:08.983Z,3.39
2022-10-05T00:14:08.988Z,3.39
2022-10-05T00:15:08.988Z,3
2022-10-05T00:16:09.062Z,3.56
2022-10-05T00:17:08.987Z,3.67
2022-10-05T00:18:08.993Z,3.67
2022-10-05T00:19:08.995Z,3.67
2022-10-05T00:20:08.995Z,3.94
2022-10-05T00:21:09.002Z,3.94
2022-10-05T00:22:09.018Z,3.67
2022-10-05T00:23:08.994Z,3.94
2022-10-05T00:24:08.997Z,3.94
2022-10-05T00:25:09.006Z,3.94
2022-10-05T00:26:09.001Z,3.56
2022-10-05T00:27:09.002Z,3.72
2022-10-05T00:28:09.045Z,3.94
2022-10-05T00:29:09.004Z,4
2022-10-05T00:30:09.017Z,3.72
2022-10-05T00:31:09.010Z,4.11
2022-10-05T00:32:09.034Z,4
2022-10-05T00:33:09.006Z,3.72
2022-10-05T00:34:09.010Z,4.22
2022-10-05T00:35:09.006Z,3.11
2022-10-05T00:36:09.014Z,2.72
2022-10-05T00:37:09.015Z,2.83
2022-10-05T00:38:09.046Z,2.83
2022-10-05T00:39:09.023Z,3
2022-10-05T00:40:09.016Z,3
2022-10-05T00:41:09.034Z,3
2022-10-05T00:42:09.025Z,3
2022-10-05T00:43:09.018Z,2.83
2022-10-05T00:44:09.032Z,3
2022-10-05T00:45:09.037Z,2.83
2022-10-05T00:46:09.072Z,3
2022-10-05T00:47:09.034Z,3.28
2022-10-05T00:48:09.039Z,3.28
2022-10-05T00:49:09.034Z,3.28
2022-10-05T00:50:09.028Z,3.33
2022-10-05T00:51:09.080Z,3.06
2022-10-05T00:52:09.033Z,3.17
2022-10-05T00:53:09.050Z,3.39
2022-10-05T00:54:09.063Z,3.44
2022-10-05T00:55:09.038Z,3.44
2022-10-05T00:56:09.044Z,3.44
2022-10-05T00:57:09.042Z,3.72
2022-10-05T00:58:09.050Z,3.83
2022-10-05T00:59:09.044Z,3.83
2022-10-05T01:00:09.043Z,3.83
2022-10-05T01:01:09.086Z,3.72
2022-10-05T01:02:09.090Z,3.94
2022-10-05T01:03:09.051Z,3.83
2022-10-05T01:04:09.049Z,3.72
2022-10-05T01:05:09.052Z,3.56
2022-10-05T01:06:09.054Z,3.44
2022-10-05T01:07:09.055Z,3.44
2022-10-05T01:08:09.064Z,3.44
2022-10-05T01:09:09.054Z,3.61
2022-10-05T01:10:09.075Z,3.33
2022-10-05T01:11:09.067Z,3.44
2022-10-05T01:12:09.061Z,3.44
2022-10-05T01:13:09.061Z,3.44
2022-10-05T01:14:09.063Z,3
2022-10-05T01:15:09.062Z,3
2022-10-05T01:16:09.079Z,3.44
2022-10-05T01:17:09.072Z,3.44
2022-10-05T01:18:09.073Z,3.44
2022-10-05T01:19:09.068Z,3.17
2022-10-05T01:20:09.067Z,3.44
2022-10-05T01:21:09.060Z,3.17
2022-10-05T01:22:09.087Z,3
2022-10-05T01:23:09.071Z,3.11
2022-10-05T01:24:09.073Z,3
2022-10-05T01:25:09.076Z,3
2022-10-05T01:26:09.151Z,3.56
2022-10-05T01:27:09.081Z,3.44
2022-10-05T01:28:09.133Z,3.72
2022-10-05T01:29:09.080Z,3.44
2022-10-05T01:30:09.088Z,3.33
2022-10-05T01:31:09.125Z,3.33
2022-10-05T01:32:09.088Z,3.44
2022-10-05T01:33:09.086Z,3
2022-10-05T01:34:11.406Z,3.11
2022-10-05T01:35:09.086Z,3
2022-10-05T01:36:09.098Z,3.33
2022-10-05T01:37:09.085Z,3.33
2022-10-05T01:38:09.087Z,3.33
2022-10-05T01:39:09.084Z,3.56
2022-10-05T01:40:09.088Z,3.56
2022-10-05T01:41:09.085Z,3.56
2022-10-05T01:42:09.164Z,3.83
2022-10-05T01:43:09.095Z,3.83
2022-10-05T01:44:09.090Z,4
2022-10-05T01:45:09.091Z,3.83
2022-10-05T01:46:09.163Z,3.83
2022-10-05T01:47:09.098Z,3.56
2022-10-05T01:48:09.094Z,3.44
2022-10-05T01:49:09.094Z,3.44
2022-10-05T01:50:09.101Z,3.44
2022-10-05T01:51:09.092Z,3.56
2022-10-05T01:52:09.109Z,3.44
2022-10-05T01:53:09.105Z,3.44
2022-10-05T01:54:09.102Z,3.5
2022-10-05T01:55:09.100Z,3.33
2022-10-05T01:56:09.105Z,3.17
2022-10-05T01:57:09.099Z,3.17
2022-10-05T01:58:09.135Z,3.61
2022-10-05T01:59:09.119Z,3.44
2022-10-05T02:00:09.106Z,3.17
2022-10-05T02:01:09.135Z,3.44
2022-10-05T02:02:09.149Z,3.56
2022-10-05T02:03:09.122Z,3.56
2022-10-05T02:04:09.117Z,3.44
2022-10-05T02:05:09.108Z,3.33
2022-10-05T02:06:09.112Z,3.33
2022-10-05T02:07:09.119Z,3.56
2022-10-05T02:08:09.120Z,3.44
2022-10-05T02:09:09.116Z,3.44
2022-10-05T02:10:09.118Z,3.83
2022-10-05T02:11:09.123Z,3.44
2022-10-05T02:12:09.120Z,3.56
2022-10-05T02:13:09.120Z,3.83
2022-10-05T02:14:09.141Z,3.72
2022-10-05T02:15:09.117Z,3.72
2022-10-05T02:16:09.257Z,3.56
2022-10-05T02:17:09.123Z,3.33
2022-10-05T02:18:09.125Z,3.72
2022-10-05T02:19:09.119Z,3.72
2022-10-05T02:20:09.134Z,3.83
2022-10-05T02:21:09.130Z,3.56
2022-10-05T02:22:09.130Z,3.72
2022-10-05T02:23:09.123Z,3.83
2022-10-05T02:24:09.127Z,3.83
2022-10-05T02:25:09.126Z,3.56
2022-10-05T02:26:09.135Z,3.83
2022-10-05T02:27:09.124Z,3.83
2022-10-05T02:28:09.186Z,3.83
2022-10-05T02:29:09.127Z,3.72
2022-10-05T02:30:12.871Z,3.17
2022-10-05T02:31:09.193Z,3.56
2022-10-05T02:32:09.127Z,3.44
2022-10-05T02:33:09.135Z,3.33
2022-10-05T02:34:09.128Z,3.56
2022-10-05T02:35:09.133Z,3.44
2022-10-05T02:36:09.138Z,3.56
2022-10-05T02:37:09.127Z,3.44
2022-10-05T02:38:09.132Z,3.56
2022-10-05T02:39:09.127Z,3.44
2022-10-05T02:40:09.136Z,3.72
2022-10-05T02:41:09.131Z,3.83
2022-10-05T02:42:09.176Z,3.94
2022-10-05T02:43:09.136Z,3.72
2022-10-05T02:44:09.127Z,3.44
2022-10-05T02:45:09.136Z,3.83
2022-10-05T02:46:09.278Z,3.56
2022-10-05T02:47:09.131Z,3.83
2022-10-05T02:48:09.135Z,3.83
2022-10-05T02:49:09.140Z,3.83
2022-10-05T02:50:09.140Z,3.83
2022-10-05T02:51:09.140Z,3.83
2022-10-05T02:52:09.146Z,3.83
2022-10-05T02:53:09.143Z,3.72
2022-10-05T02:54:09.142Z,4
2022-10-05T02:55:09.139Z,3.83
2022-10-05T02:56:09.150Z,3.83
2022-10-05T02:57:09.159Z,3.83
2022-10-05T02:58:09.148Z,3.83
2022-10-05T02:59:09.145Z,3.83
2022-10-05T03:00:09.147Z,4
2022-10-05T03:01:09.203Z,4
2022-10-05T03:02:09.224Z,3.83
2022-10-05T03:03:09.154Z,3.56
2022-10-05T03:04:09.156Z,3.72
2022-10-05T03:05:09.158Z,4.17
2022-10-05T03:06:09.156Z,4.17
2022-10-05T03:07:09.153Z,4
2022-10-05T03:08:09.165Z,3.83
2022-10-05T03:09:09.158Z,3.44
2022-10-05T03:10:09.155Z,3.56
2022-10-05T03:11:09.159Z,3.56
2022-10-05T03:12:09.162Z,3.72
2022-10-05T03:13:09.160Z,3.72
2022-10-05T03:14:09.158Z,3.33
2022-10-05T03:15:09.166Z,3.83
2022-10-05T03:16:09.230Z,3.44
2022-10-05T03:17:09.171Z,3.72
2022-10-05T03:18:09.195Z,3.72
2022-10-05T03:19:09.169Z,3.56
2022-10-05T03:20:09.170Z,3.83
2022-10-05T03:21:09.166Z,3.72
2022-10-05T03:22:09.173Z,3.83
2022-10-05T03:23:09.178Z,3.83
2022-10-05T03:24:09.176Z,3.72
2022-10-05T03:25:09.176Z,3.83
2022-10-05T03:26:09.187Z,3.72
2022-10-05T03:27:09.197Z,4
2022-10-05T03:28:09.233Z,4.06
2022-10-05T03:29:09.188Z,3.83
2022-10-05T03:30:09.189Z,4
2022-10-05T03:31:09.284Z,4.28
2022-10-05T03:32:09.189Z,3.83
2022-10-05T03:33:09.189Z,4
2022-10-05T03:34:09.231Z,4.17
2022-10-05T03:35:09.193Z,4.22
2022-10-05T03:36:09.184Z,4.17
2022-10-05T03:37:09.195Z,4.17
2022-10-05T03:38:09.198Z,4.28
2022-10-05T03:39:09.195Z,4.28
2022-10-05T03:40:09.196Z,4.28
2022-10-05T03:41:09.190Z,4.28
2022-10-05T03:42:09.194Z,4.17
2022-10-05T03:43:09.196Z,4.17
2022-10-05T03:44:09.203Z,3.83
2022-10-05T03:45:09.198Z,4.17
2022-10-05T03:46:09.253Z,4.28
2022-10-05T03:47:09.204Z,4.44
2022-10-05T03:48:09.198Z,3.72
2022-10-05T03:49:09.200Z,4.44
2022-10-05T03:50:09.224Z,4.56
2022-10-05T03:51:09.208Z,4.28
2022-10-05T03:52:09.206Z,4.56
2022-10-05T03:53:09.209Z,4.28
2022-10-05T03:54:09.216Z,4.56
2022-10-05T03:55:09.200Z,4.56
2022-10-05T03:56:09.218Z,4.28
2022-10-05T03:57:09.213Z,4.44
2022-10-05T03:58:09.213Z,4.5
2022-10-05T03:59:09.220Z,4.28
2022-10-05T04:00:09.207Z,4.44
2022-10-05T04:01:09.255Z,4.39
2022-10-05T04:02:09.266Z,4.56
2022-10-05T04:03:09.217Z,4.44
2022-10-05T04:04:09.222Z,4.28
2022-10-05T04:05:09.224Z,4.28
2022-10-05T04:06:09.292Z,4.44
2022-10-05T04:07:09.229Z,4.78
2022-10-05T04:08:09.227Z,4.67
2022-10-05T04:09:09.218Z,4.44
2022-10-05T04:10:09.226Z,4.44
2022-10-05T04:11:09.239Z,4.56
2022-10-05T04:12:09.231Z,4.5
2022-10-05T04:13:09.233Z,4.44
2022-10-05T04:14:09.237Z,4.67
2022-10-05T04:15:09.241Z,4.44
2022-10-05T04:16:09.270Z,4.72
2022-10-05T04:17:09.245Z,4.78
2022-10-05T04:18:09.232Z,4.17
2022-10-05T04:19:09.237Z,4.72
2022-10-05T04:20:09.242Z,4.28
2022-10-05T04:21:09.251Z,4.44
2022-10-05T04:22:09.263Z,4.56
2022-10-05T04:23:09.248Z,4.44
2022-10-05T04:24:09.251Z,4.72
2022-10-05T04:25:09.263Z,4.78
2022-10-05T04:26:09.254Z,4.89
2022-10-05T04:27:09.249Z,4.28
2022-10-05T04:28:09.301Z,4.72
2022-10-05T04:29:09.253Z,4.78
2022-10-05T04:30:09.253Z,4.78
2022-10-05T04:31:09.293Z,4.72
2022-10-05T04:32:09.250Z,4.44
2022-10-05T04:33:09.249Z,4.67
2022-10-05T04:34:09.272Z,4.39
2022-10-05T04:35:09.255Z,4.83
2022-10-05T04:36:09.261Z,4.72
2022-10-05T04:37:09.261Z,4.83
2022-10-05T04:38:09.281Z,4.61
2022-10-05T04:39:09.261Z,4.89
2022-10-05T04:40:09.267Z,4.67
2022-10-05T04:41:09.263Z,4.67
2022-10-05T04:42:09.262Z,4.72
2022-10-05T04:43:09.270Z,4.94
2022-10-05T04:44:09.266Z,4.94
2022-10-05T04:45:09.267Z,4.89
2022-10-05T04:46:09.282Z,4.61
2022-10-05T04:47:09.300Z,4.67
2022-10-05T04:48:09.285Z,4.83
2022-10-05T04:49:09.275Z,4.94
2022-10-05T04:50:09.273Z,4.67
2022-10-05T04:51:09.273Z,4.78
2022-10-05T04:52:09.271Z,4.5
2022-10-05T04:53:09.283Z,4.67
2022-10-05T04:54:09.312Z,4.94
2022-10-05T04:55:09.281Z,4.83
2022-10-05T04:56:09.285Z,4.94
2022-10-05T04:57:09.289Z,4.83
2022-10-05T04:58:09.285Z,4.67
2022-10-05T04:59:09.283Z,4.94
2022-10-05T05:00:09.287Z,4.94
2022-10-05T05:01:09.379Z,4.83
2022-10-05T05:02:09.284Z,4.94
2022-10-05T05:03:09.288Z,5.11
2022-10-05T05:04:09.326Z,4.94
2022-10-05T05:05:09.294Z,4.94
2022-10-05T05:06:17.910Z,5.11
2022-10-05T05:07:09.292Z,4.83
2022-10-05T05:08:09.290Z,4.83
2022-10-05T05:09:09.295Z,4.94
2022-10-05T05:10:09.316Z,4.94
2022-10-05T05:11:12.435Z,4.94
2022-10-05T05:12:09.301Z,4.94
2022-10-05T05:13:09.312Z,4.83
2022-10-05T05:14:09.306Z,4.94
2022-10-05T05:15:09.301Z,4.67
2022-10-05T05:16:09.386Z,5.22
2022-10-05T05:17:12.962Z,4.94
2022-10-05T05:18:09.312Z,4.5
2022-10-05T05:19:09.297Z,4.83
2022-10-05T05:20:09.306Z,4.67
2022-10-05T05:21:09.307Z,5.11
2022-10-05T05:22:09.312Z,4.94
2022-10-05T05:23:09.299Z,4.94
2022-10-05T05:24:09.303Z,4.67
2022-10-05T05:25:09.304Z,4.94
2022-10-05T05:26:09.326Z,4.94
2022-10-05T05:27:09.305Z,4.94
2022-10-05T05:28:09.370Z,4.94
2022-10-05T05:29:09.300Z,5.11
2022-10-05T05:30:09.304Z,4.94
2022-10-05T05:31:09.343Z,5.22
2022-10-05T05:32:09.328Z,4.94
2022-10-05T05:33:09.314Z,4.94
2022-10-05T05:34:09.319Z,4.94
2022-10-05T05:35:09.313Z,5.11
2022-10-05T05:36:09.302Z,5.11
2022-10-05T05:37:09.309Z,4.94
2022-10-05T05:38:09.314Z,4.5
2022-10-05T05:39:09.316Z,4.94
2022-10-05T05:40:09.319Z,4.94
2022-10-05T05:41:09.320Z,4.94
2022-10-05T05:42:09.341Z,4.83
2022-10-05T05:43:09.319Z,4.94
2022-10-05T05:44:09.319Z,5.11
2022-10-05T05:45:09.323Z,4.94
2022-10-05T05:46:09.367Z,4.94
2022-10-05T05:47:09.613Z,4.94
2022-10-05T05:48:09.316Z,4.67
2022-10-05T05:49:09.319Z,5.39
2022-10-05T05:50:09.326Z,4.94
2022-10-05T05:51:09.327Z,5.11
2022-10-05T05:52:09.329Z,5.22
2022-10-05T05:53:09.325Z,5.11
2022-10-05T05:54:09.321Z,5.11
2022-10-05T05:55:09.323Z,5.22
2022-10-05T05:56:09.327Z,4.94
2022-10-05T05:57:09.328Z,5.22
2022-10-05T05:58:09.348Z,5.22
2022-10-05T05:59:09.330Z,5.11
2022-10-05T06:00:09.339Z,5.11
2022-10-05T06:01:20.416Z,5.11
2022-10-05T06:02:09.448Z,4.94
2022-10-05T06:03:09.478Z,5.22
2022-10-05T06:04:09.346Z,4.94
2022-10-05T06:05:09.335Z,5.22
2022-10-05T06:06:09.331Z,5.11
2022-10-05T06:07:09.343Z,5.22
2022-10-05T06:08:09.341Z,5.11
2022-10-05T06:09:09.343Z,5.11
2022-10-05T06:10:09.338Z,4.94
2022-10-05T06:11:09.336Z,4.94
2022-10-05T06:12:09.338Z,4.94
2022-10-05T06:13:09.338Z,4.83
2022-10-05T06:14:09.372Z,4.94
2022-10-05T06:15:09.344Z,5.11
2022-10-05T06:16:09.433Z,5.11
2022-10-05T06:17:09.346Z,5.11
2022-10-05T06:18:09.349Z,4.94
2022-10-05T06:19:09.344Z,5.11
2022-10-05T06:20:09.348Z,4.83
2022-10-05T06:21:09.347Z,4.94
2022-10-05T06:22:09.347Z,4.94
2022-10-05T06:23:09.340Z,4.94
2022-10-05T06:24:09.342Z,4.94
2022-10-05T06:25:09.344Z,5.11
2022-10-05T06:26:10.786Z,4.94
2022-10-05T06:27:09.341Z,4.94
2022-10-05T06:28:09.400Z,4.83
2022-10-05T06:29:09.345Z,4.67
2022-10-05T06:30:09.376Z,4.94
2022-10-05T06:31:09.415Z,4.94
2022-10-05T06:32:09.360Z,4.94
2022-10-05T06:33:09.351Z,4.94
2022-10-05T06:34:09.344Z,4.83
2022-10-05T06:35:09.352Z,4.94
2022-10-05T06:36:09.350Z,4.67
2022-10-05T06:37:09.353Z,4.94
2022-10-05T06:38:09.349Z,4.83
2022-10-05T06:39:09.343Z,4.94
2022-10-05T06:40:09.344Z,4.83
2022-10-05T06:41:09.352Z,4.94
2022-10-05T06:42:09.368Z,5.11
2022-10-05T06:43:09.369Z,5.39
2022-10-05T06:44:09.352Z,5.39
2022-10-05T06:45:09.352Z,5.39
2022-10-05T06:46:09.448Z,5.39
2022-10-05T06:47:09.355Z,5.39
2022-10-05T06:48:09.354Z,5.22
2022-10-05T06:49:09.349Z,5.39
2022-10-05T06:50:09.356Z,5.56
2022-10-05T06:51:09.352Z,5.22
2022-10-05T06:52:09.366Z,5.39
2022-10-05T06:53:09.349Z,5.22
2022-10-05T06:54:09.353Z,5.22
2022-10-05T06:55:13.341Z,5.22
2022-10-05T06:56:09.365Z,5.22
2022-10-05T06:57:09.354Z,5.56
2022-10-05T06:58:09.345Z,5.56
2022-10-05T06:59:09.351Z,5.39
2022-10-05T07:00:09.353Z,5.22
2022-10-05T07:01:09.412Z,5.39
2022-10-05T07:02:09.411Z,5.67
2022-10-05T07:03:09.360Z,5.39
2022-10-05T07:04:09.363Z,5.22
2022-10-05T07:05:09.359Z,5.39
2022-10-05T07:06:09.357Z,5.67
2022-10-05T07:07:09.355Z,5.39
2022-10-05T07:08:09.356Z,5.78
2022-10-05T07:09:09.358Z,5.56
2022-10-05T07:10:09.365Z,5.56
2022-10-05T07:11:09.373Z,5.78
2022-10-05T07:12:09.359Z,5.78
2022-10-05T07:13:09.362Z,6.06
2022-10-05T07:14:09.370Z,6.06
2022-10-05T07:15:09.369Z,5.67
2022-10-05T07:16:09.429Z,6.22
2022-10-05T07:17:09.361Z,6.22
2022-10-05T07:18:09.396Z,6.22
2022-10-05T07:19:09.370Z,6.06
2022-10-05T07:20:09.366Z,5.78
2022-10-05T07:21:09.365Z,6.39
2022-10-05T07:22:09.370Z,6.06
2022-10-05T07:23:09.372Z,6.5
2022-10-05T07:24:09.358Z,6.22
2022-10-05T07:25:09.368Z,6.22
2022-10-05T07:26:09.369Z,6.06
2022-10-05T07:27:09.368Z,5.78
2022-10-05T07:28:09.411Z,6.39
2022-10-05T07:29:09.367Z,6.5
2022-10-05T07:30:09.369Z,6.67
2022-10-05T07:31:09.407Z,5.94
2022-10-05T07:32:09.367Z,6.5
2022-10-05T07:33:09.367Z,6.39
2022-10-05T07:34:09.398Z,6.67
2022-10-05T07:35:09.374Z,6.67
2022-10-05T07:36:09.372Z,6.67
2022-10-05T07:37:09.376Z,6.39
2022-10-05T07:38:09.371Z,6.78
2022-10-05T07:39:09.373Z,6.67
2022-10-05T07:40:09.378Z,6.67
2022-10-05T07:41:09.371Z,6.67
2022-10-05T07:42:09.373Z,6.67
2022-10-05T07:43:09.366Z,6.94
2022-10-05T07:44:12.667Z,6.78
2022-10-05T07:45:09.370Z,6.94
2022-10-05T07:46:09.490Z,6.67
2022-10-05T07:47:09.376Z,6.78
2022-10-05T07:48:09.373Z,6.78
2022-10-05T07:49:09.374Z,6.67
2022-10-05T07:50:09.453Z,6.78
2022-10-05T07:51:09.377Z,6.94
2022-10-05T07:52:09.374Z,7.11
2022-10-05T07:53:09.378Z,7.11
2022-10-05T07:54:09.378Z,7.22
2022-10-05T07:55:09.381Z,7.11
2022-10-05T07:56:09.379Z,7.11
2022-10-05T07:57:09.387Z,7.11
2022-10-05T07:58:09.373Z,7.11
2022-10-05T07:59:09.373Z,7.22
2022-10-05T08:00:09.382Z,7.39
2022-10-05T08:01:09.383Z,7.22
2022-10-05T08:02:09.547Z,6.94
2022-10-05T08:03:09.414Z,6.94
2022-10-05T08:04:09.373Z,7.22
2022-10-05T08:05:09.375Z,7.22
2022-10-05T08:06:09.395Z,7.22
2022-10-05T08:07:09.412Z,7.5
2022-10-05T08:08:09.379Z,7.39
2022-10-05T08:09:09.380Z,7.67
2022-10-05T08:10:09.373Z,7.39
2022-10-05T08:11:09.378Z,7.67
2022-10-05T08:12:09.368Z,7.22
2022-10-05T08:13:09.370Z,7.5
2022-10-05T08:14:09.379Z,7.94
2022-10-05T08:15:09.372Z,7.94
2022-10-05T08:16:09.448Z,8.39
2022-10-05T08:17:09.371Z,8.39
2022-10-05T08:18:09.386Z,8.28
2022-10-05T08:19:09.374Z,8.11
2022-10-05T08:20:09.377Z,8.11
2022-10-05T08:21:09.389Z,8.28
2022-10-05T08:22:09.404Z,8.28
2022-10-05T08:23:09.376Z,8.28
2022-10-05T08:24:09.377Z,8.39
2022-10-05T08:25:09.388Z,8.39
2022-10-05T08:26:09.377Z,8.5
2022-10-05T08:27:09.388Z,8.39
2022-10-05T08:28:09.432Z,8.28
2022-10-05T08:29:13.597Z,8.28
2022-10-05T08:30:09.385Z,7.94
2022-10-05T08:31:09.451Z,8.5
2022-10-05T08:32:09.385Z,8.78
2022-10-05T08:33:09.393Z,8.78
2022-10-05T08:34:09.392Z,8.78
2022-10-05T08:35:09.386Z,8.78
2022-10-05T08:36:09.380Z,9.06
2022-10-05T08:37:09.387Z,9.39
2022-10-05T08:38:09.451Z,9.5
2022-10-05T08:39:09.389Z,9.67
2022-10-05T08:40:09.386Z,9.39
2022-10-05T08:41:09.395Z,9.67
2022-10-05T08:42:09.395Z,9.06
2022-10-05T08:43:09.387Z,9.39
2022-10-05T08:44:09.388Z,9.67
2022-10-05T08:45:09.399Z,9.67
2022-10-05T08:46:09.466Z,9.94
2022-10-05T08:47:09.391Z,10.11
2022-10-05T08:48:09.400Z,9.5
2022-10-05T08:49:09.402Z,9.5
2022-10-05T08:50:09.393Z,9.67
2022-10-05T08:51:09.400Z,9.39
2022-10-05T08:52:09.389Z,9.67
2022-10-05T08:53:09.396Z,9.67
2022-10-05T08:54:09.421Z,9.5
2022-10-05T08:55:09.403Z,10.11
2022-10-05T08:56:09.399Z,9.94
2022-10-05T08:57:09.401Z,9.67
2022-10-05T08:58:09.396Z,9.06
2022-10-05T08:59:09.411Z,9.5
2022-10-05T09:00:09.415Z,10.11
2022-10-05T09:01:09.443Z,10.56
2022-10-05T09:02:09.436Z,10.11
2022-10-05T09:03:09.418Z,10.56
2022-10-05T09:04:09.402Z,10.67
2022-10-05T09:05:09.405Z,10.22
2022-10-05T09:06:09.409Z,10.11
2022-10-05T09:07:09.405Z,10.56
2022-10-05T09:08:09.414Z,10.56
2022-10-05T09:09:09.405Z,10.22
2022-10-05T09:10:09.438Z,10.67
2022-10-05T09:11:09.416Z,11
2022-10-05T09:12:09.413Z,10.83
2022-10-05T09:13:09.418Z,11.61
2022-10-05T09:14:09.413Z,11.44
2022-10-05T09:15:24.638Z,11.44
2022-10-05T09:16:09.463Z,11.44
2022-10-05T09:17:09.415Z,11.44
2022-10-05T09:18:09.414Z,11.28
2022-10-05T09:19:09.416Z,11.44
2022-10-05T09:20:09.413Z,11.83
2022-10-05T09:21:09.420Z,11.83
2022-10-05T09:22:09.418Z,11
2022-10-05T09:23:09.421Z,11.44
2022-10-05T09:24:09.425Z,11.28
2022-10-05T09:25:09.420Z,10.39
2022-10-05T09:26:09.455Z,11
2022-10-05T09:27:09.425Z,11.28
2022-10-05T09:28:09.470Z,10.56
2022-10-05T09:29:09.423Z,10.11
2022-10-05T09:30:09.427Z,10.11
2022-10-05T09:31:09.467Z,10.56
2022-10-05T09:32:12.984Z,10.39
2022-10-05T09:33:09.424Z,10.39
2022-10-05T09:34:09.418Z,11.11
2022-10-05T09:35:09.434Z,10.83
2022-10-05T09:36:09.429Z,10.83
2022-10-05T09:37:09.428Z,10.56
2022-10-05T09:38:09.437Z,10.39
2022-10-05T09:39:09.427Z,10.56
2022-10-05T09:40:09.424Z,10.56
2022-10-05T09:41:09.429Z,11.11
2022-10-05T09:42:09.460Z,11.11
2022-10-05T09:43:09.427Z,10.39
2022-10-05T09:44:09.434Z,10.39
2022-10-05T09:45:09.434Z,10.11
2022-10-05T09:46:09.461Z,10.56
2022-10-05T09:47:09.436Z,10.39
2022-10-05T09:48:09.431Z,10.56
2022-10-05T09:49:09.439Z,11
2022-10-05T09:50:09.435Z,10.67
2022-10-05T09:51:09.431Z,11.11
2022-10-05T09:52:09.432Z,11.28
2022-10-05T09:53:09.448Z,11.44
2022-10-05T09:54:09.432Z,11.28
2022-10-05T09:55:09.436Z,11.44
2022-10-05T09:56:09.435Z,11.44
2022-10-05T09:57:09.438Z,11.44
2022-10-05T09:58:09.460Z,11.83
2022-10-05T09:59:09.438Z,12.11
2022-10-05T10:00:09.541Z,12.56
2022-10-05T10:01:15.906Z,12.72
2022-10-05T10:02:09.452Z,11.94
2022-10-05T10:03:09.480Z,12.28
2022-10-05T10:04:09.434Z,12.89
2022-10-05T10:05:09.439Z,13.06
2022-10-05T10:06:09.434Z,13.5
2022-10-05T10:07:09.440Z,14.06
2022-10-05T10:08:09.437Z,14.06
2022-10-05T10:09:09.436Z,13.78
2022-10-05T10:10:09.466Z,13.78
2022-10-05T10:11:09.434Z,14.06
2022-10-05T10:12:09.445Z,14.06
2022-10-05T10:13:09.444Z,12.28
2022-10-05T10:14:09.458Z,11.94
2022-10-05T10:15:09.449Z,11.72
2022-10-05T10:16:09.527Z,11.72
2022-10-05T10:17:09.439Z,12.28
2022-10-05T10:18:09.438Z,12.44
2022-10-05T10:19:09.438Z,12.11
2022-10-05T10:20:09.460Z,13.33
2022-10-05T10:21:09.437Z,13.94
2022-10-05T10:22:09.433Z,14.56
2022-10-05T10:23:09.442Z,14.06
2022-10-05T10:24:09.429Z,14.06
2022-10-05T10:25:09.450Z,14.56
2022-10-05T10:26:09.439Z,13.78
2022-10-05T10:27:09.435Z,13.06
2022-10-05T10:28:09.476Z,13.17
2022-10-05T10:29:09.441Z,13.17
2022-10-05T10:30:09.456Z,13.17
2022-10-05T10:31:09.487Z,13.67
2022-10-05T10:32:09.439Z,13.94
2022-10-05T10:33:09.438Z,13.94
2022-10-05T10:34:09.435Z,15
2022-10-05T10:35:09.446Z,15
2022-10-05T10:36:09.446Z,15.22
2022-10-05T10:37:09.438Z,14.89
2022-10-05T10:38:09.443Z,15.22
2022-10-05T10:39:09.447Z,15.39
2022-10-05T10:40:09.445Z,15.22
2022-10-05T10:41:09.446Z,15.89
2022-10-05T10:42:09.444Z,15
2022-10-05T10:43:09.439Z,15.22
2022-10-05T10:44:09.446Z,15.89
2022-10-05T10:45:09.444Z,16.06
2022-10-05T10:46:09.552Z,15.56
2022-10-05T10:47:09.446Z,15.22
2022-10-05T10:48:09.441Z,15.61
2022-10-05T10:49:09.451Z,15.17
2022-10-05T10:50:09.450Z,15.17
2022-10-05T10:51:09.441Z,16.06
2022-10-05T10:52:09.447Z,16.33
2022-10-05T10:53:09.445Z,16.56
2022-10-05T10:54:09.451Z,16.06
2022-10-05T10:55:09.451Z,16.56
2022-10-05T10:56:09.439Z,16.06
2022-10-05T10:57:09.462Z,16.39
2022-10-05T10:58:13.684Z,16.06
2022-10-05T10:59:09.454Z,15.61
2022-10-05T11:00:09.457Z,15.61
2022-10-05T11:01:09.465Z,16.06
2022-10-05T11:02:09.545Z,16.06
2022-10-05T11:03:09.495Z,15.61
2022-10-05T11:04:09.465Z,15.78
2022-10-05T11:05:09.453Z,16.06
2022-10-05T11:06:09.468Z,15.89
2022-10-05T11:07:09.467Z,17
2022-10-05T11:08:09.462Z,17
2022-10-05T11:09:09.483Z,17.17
2022-10-05T11:10:09.468Z,16.56
2022-10-05T11:11:09.471Z,16.56
2022-10-05T11:12:09.469Z,16.72
2022-10-05T11:13:09.473Z,16.22
2022-10-05T11:14:09.464Z,16.72
2022-10-05T11:15:09.472Z,17
2022-10-05T11:16:09.474Z,17.94
2022-10-05T11:17:09.475Z,17.5
2022-10-05T11:18:09.507Z,17.94
2022-10-05T11:19:09.474Z,18.17
2022-10-05T11:20:09.477Z,17.83
2022-10-05T11:21:09.484Z,17.5
2022-10-05T11:22:09.483Z,17.5
2022-10-05T11:23:09.475Z,17.94
2022-10-05T11:24:09.478Z,18.44
2022-10-05T11:25:09.480Z,18.78
2022-10-05T11:26:09.473Z,18.78
2022-10-05T11:27:09.546Z,18.61
2022-10-05T11:28:09.540Z,18.17
2022-10-05T11:29:09.489Z,18.44
2022-10-05T11:30:09.492Z,17.83
2022-10-05T11:31:09.520Z,17.5
2022-10-05T11:32:09.490Z,16.39
2022-10-05T11:33:09.490Z,17
2022-10-05T11:34:09.516Z,17.83
2022-10-05T11:35:09.496Z,18.44
2022-10-05T11:36:09.494Z,18.44
2022-10-05T11:37:09.492Z,17.5
2022-10-05T11:38:09.493Z,17.67
2022-10-05T11:39:09.509Z,17.17
2022-10-05T11:40:09.512Z,17
2022-10-05T11:41:09.505Z,17
2022-10-05T11:42:09.501Z,16.56
2022-10-05T11:43:09.500Z,16.56
2022-10-05T11:44:09.493Z,16.56
2022-10-05T11:45:09.494Z,16.56
2022-10-05T11:46:09.562Z,16.56
2022-10-05T11:47:09.500Z,16.89
2022-10-05T11:48:09.506Z,17.17
2022-10-05T11:49:09.502Z,17.5
2022-10-05T11:50:09.543Z,17.17
2022-10-05T11:51:09.513Z,16.89
2022-10-05T11:52:09.514Z,17
2022-10-05T11:53:09.511Z,17.17
2022-10-05T11:54:09.508Z,17.5
2022-10-05T11:55:11.242Z,17.5
2022-10-05T11:56:09.515Z,17
2022-10-05T11:57:09.523Z,16.72
2022-10-05T11:58:09.517Z,17.5
2022-10-05T11:59:09.525Z,17.33
2022-10-05T12:00:09.515Z,17
2022-10-05T12:01:09.514Z,17.5
2022-10-05T12:02:09.522Z,17.33
2022-10-05T12:03:09.724Z,17.5
2022-10-05T12:04:09.609Z,17
2022-10-05T12:05:09.522Z,17.17
2022-10-05T12:06:09.562Z,17
2022-10-05T12:07:09.521Z,17.17
2022-10-05T12:08:09.524Z,17.5
2022-10-05T12:09:09.514Z,17.33
2022-10-05T12:10:09.532Z,17.17
2022-10-05T12:11:09.515Z,17.5
2022-10-05T12:12:09.524Z,17.5
2022-10-05T12:13:09.528Z,17.33
2022-10-05T12:14:09.529Z,17.5
2022-10-05T12:15:09.526Z,17.67
2022-10-05T12:16:09.581Z,18.17
2022-10-05T12:17:09.524Z,17.83
2022-10-05T12:18:09.524Z,17.94
2022-10-05T12:19:09.528Z,17.94
2022-10-05T12:20:09.528Z,17.94
2022-10-05T12:21:09.537Z,17.33
2022-10-05T12:22:09.605Z,17
2022-10-05T12:23:09.542Z,17
2022-10-05T12:24:09.538Z,17.17
2022-10-05T12:25:09.545Z,17.33
2022-10-05T12:26:09.532Z,17.5
2022-10-05T12:27:09.539Z,17.83
2022-10-05T12:28:09.607Z,17.56
2022-10-05T12:29:09.546Z,17.61
2022-10-05T12:30:09.531Z,17.67
2022-10-05T12:31:09.603Z,17.83
2022-10-05T12:32:09.544Z,17.67
2022-10-05T12:33:09.543Z,17.83
2022-10-05T12:34:09.553Z,18.17
2022-10-05T12:35:09.549Z,18.17
2022-10-05T12:36:09.555Z,18.17
2022-10-05T12:37:09.544Z,18.33
2022-10-05T12:38:09.589Z,18.67
2022-10-05T12:39:09.554Z,18.67
2022-10-05T12:40:09.564Z,18.94
2022-10-05T12:41:09.567Z,18.67
2022-10-05T12:42:09.556Z,18.67
2022-10-05T12:43:09.564Z,18.5
2022-10-05T12:44:09.566Z,17.83
2022-10-05T12:45:09.580Z,17.67
2022-10-05T12:46:09.623Z,17.67
2022-10-05T12:47:09.571Z,18.5
2022-10-05T12:48:09.563Z,18.67
2022-10-05T12:49:09.560Z,18.5
2022-10-05T12:50:09.574Z,18
2022-10-05T12:51:09.569Z,18.33
2022-10-05T12:52:09.580Z,18.33
2022-10-05T12:53:09.578Z,18.17
2022-10-05T12:54:09.602Z,17.67
2022-10-05T12:55:09.571Z,17.67
2022-10-05T12:56:09.945Z,18.17
2022-10-05T12:57:09.582Z,18.67
2022-10-05T12:58:09.569Z,18.83
2022-10-05T12:59:09.584Z,18.33
2022-10-05T13:00:09.585Z,18.94
2022-10-05T13:01:09.712Z,19.11
2022-10-05T13:02:09.618Z,19.33
2022-10-05T13:03:09.580Z,19.61
2022-10-05T13:04:09.578Z,19.44
2022-10-05T13:05:09.583Z,19.61
2022-10-05T13:06:09.857Z,19.83
2022-10-05T13:07:09.590Z,20.22
2022-10-05T13:08:09.589Z,20.56
2022-10-05T13:09:09.598Z,20.22
2022-10-05T13:10:09.626Z,20.11
2022-10-05T13:11:14.135Z,19.44
2022-10-05T13:12:09.599Z,19.61
2022-10-05T13:13:09.598Z,19.61
2022-10-05T13:14:09.593Z,19.44
2022-10-05T13:15:09.586Z,19.11